Time;durP1;ratioP1;P1;durP2;ratioP2;P2;SDS_P1;SDS_P2;PMS_P1;PMS_P2;Temp;Humidity;BMP_temperature;BMP_pressure;BME280_temperature;BME280_humidity;BME280_pressure;Samples;Min_cycle;Max_cycle;Signal;HPM_P1;HPM_P2
2022/06/27 00:01:39;;;;;;;1.20;1.10;;;26.20;70.40;;;;;;5013036;28;20531;-84
2022/06/27 00:04:06;;;;;;;1.10;1.00;;;26.20;70.40;;;;;;5012946;28;20530;-84
2022/06/27 00:06:35;;;;;;;1.20;1.10;;;26.20;70.40;;;;;;5013074;28;21125;-84
2022/06/27 00:09:01;;;;;;;1.20;1.10;;;26.20;70.40;;;;;;5013177;28;21002;-83
2022/06/27 00:11:28;;;;;;;1.20;1.10;;;26.20;70.40;;;;;;5012930;28;20469;-84
2022/06/27 00:13:55;;;;;;;1.27;1.17;;;26.20;70.40;;;;;;5012990;28;20535;-87
2022/06/27 00:16:22;;;;;;;1.17;1.07;;;26.20;70.40;;;;;;5012944;28;20454;-83
2022/06/27 00:18:49;;;;;;;1.37;1.27;;;26.20;70.40;;;;;;5012971;28;20447;-92
2022/06/27 00:21:16;;;;;;;1.10;1.00;;;26.20;71.30;;;;;;5013060;28;20439;-83
2022/06/27 00:23:44;;;;;;;1.10;1.00;;;26.20;70.40;;;;;;5012943;28;20439;-84
2022/06/27 00:26:11;;;;;;;1.10;1.00;;;26.20;70.40;;;;;;5012764;28;20570;-84
2022/06/27 00:28:38;;;;;;;1.30;1.20;;;26.20;70.40;;;;;;5012512;28;20518;-83
2022/06/27 00:31:05;;;;;;;1.13;1.03;;;26.20;70.40;;;;;;5012902;28;20486;-83
2022/06/27 00:33:32;;;;;;;1.03;0.93;;;26.20;70.50;;;;;;5012907;28;20789;-83
2022/06/27 00:35:59;;;;;;;1.00;0.90;;;26.20;70.40;;;;;;5013773;28;20534;-84
2022/06/27 00:38:26;;;;;;;1.27;1.10;;;26.20;70.40;;;;;;5016648;28;20478;-84
2022/06/27 00:40:54;;;;;;;1.57;1.43;;;26.20;70.40;;;;;;5016247;28;20432;-84
2022/06/27 00:43:21;;;;;;;1.30;1.20;;;26.20;70.40;;;;;;5016322;28;20481;-84
2022/06/27 00:45:48;;;;;;;1.27;1.17;;;26.20;70.40;;;;;;5016178;28;20605;-84
2022/06/27 00:48:15;;;;;;;1.17;1.07;;;26.20;70.40;;;;;;5016247;28;20534;-83
2022/06/27 00:50:42;;;;;;;1.50;1.40;;;26.20;70.40;;;;;;5016283;28;21043;-84
2022/06/27 00:53:10;;;;;;;1.50;1.40;;;26.20;70.40;;;;;;5016111;28;20887;-84
2022/06/27 00:55:37;;;;;;;1.10;1.00;;;26.20;70.40;;;;;;5015943;28;20523;-84
2022/06/27 00:58:05;;;;;;;1.30;1.20;;;26.20;70.50;;;;;;5016010;28;20884;-83
2022/06/27 01:00:32;;;;;;;1.10;1.00;;;26.20;70.40;;;;;;5016075;28;20530;-84
2022/06/27 01:02:59;;;;;;;1.30;1.20;;;26.20;70.50;;;;;;5015905;28;20443;-83
2022/06/27 01:05:26;;;;;;;1.50;1.40;;;26.20;70.50;;;;;;5015765;28;21069;-84
2022/06/27 01:07:54;;;;;;;1.20;1.10;;;26.20;70.40;;;;;;5015704;28;20794;-83
2022/06/27 01:10:21;;;;;;;1.20;1.10;;;26.20;70.50;;;;;;5015741;28;20530;-84
2022/06/27 01:12:49;;;;;;;1.20;1.10;;;26.20;70.50;;;;;;5015615;28;20502;-84
2022/06/27 01:15:17;;;;;;;1.07;0.90;;;26.20;70.50;;;;;;5015812;28;20454;-84
2022/06/27 01:17:45;;;;;;;1.40;1.30;;;26.20;70.50;;;;;;5015642;28;21018;-84
2022/06/27 01:20:13;;;;;;;1.30;1.20;;;26.20;70.50;;;;;;5015764;28;20444;-84
2022/06/27 01:22:41;;;;;;;1.30;1.20;;;26.20;70.50;;;;;;5015501;28;20486;-84
2022/06/27 01:25:09;;;;;;;1.20;0.93;;;26.20;70.60;;;;;;5015543;28;20527;-83
2022/06/27 01:27:36;;;;;;;1.23;1.13;;;26.20;70.50;;;;;;5015358;28;20475;-84
2022/06/27 01:30:04;;;;;;;1.30;1.20;;;26.20;70.50;;;;;;5015586;28;20471;-84
2022/06/27 01:32:31;;;;;;;1.20;1.07;;;26.20;70.50;;;;;;5015531;28;20514;-84
2022/06/27 01:34:58;;;;;;;1.20;1.10;;;26.20;70.60;;;;;;5015292;28;20439;-84
2022/06/27 01:37:24;;;;;;;1.23;1.13;;;26.20;70.50;;;;;;5015340;28;20443;-84
2022/06/27 01:39:54;;;;;;;1.10;1.00;;;26.20;70.50;;;;;;5015236;28;20446;-84
2022/06/27 01:42:22;;;;;;;1.13;0.97;;;26.20;70.50;;;;;;5015087;28;20514;-84
2022/06/27 01:44:49;;;;;;;1.40;1.30;;;26.20;70.60;;;;;;5015014;28;20448;-83
2022/06/27 01:47:16;;;;;;;1.30;1.20;;;26.20;70.60;;;;;;5014102;28;20522;-92
2022/06/27 01:49:43;;;;;;;1.13;1.03;;;26.20;70.50;;;;;;5015041;28;20931;-84
2022/06/27 01:52:13;;;;;;;1.27;1.17;;;26.20;70.60;;;;;;5015126;28;20432;-84
2022/06/27 01:54:40;;;;;;;1.10;1.00;;;26.20;70.60;;;;;;4997668;28;20526;-84
2022/06/27 01:57:09;;;;;;;1.20;1.10;;;26.20;70.60;;;;;;5014853;28;20443;-84
2022/06/27 01:59:36;;;;;;;1.30;1.20;;;26.20;70.60;;;;;;5014970;28;20471;-84
2022/06/27 02:02:05;;;;;;;1.17;1.07;;;26.20;70.60;;;;;;5014998;28;20435;-84
2022/06/27 02:04:32;;;;;;;1.00;0.90;;;26.10;70.50;;;;;;5014770;28;20442;-83
2022/06/27 02:07:00;;;;;;;1.13;1.00;;;26.20;70.60;;;;;;5014484;28;20580;-83
2022/06/27 02:09:27;;;;;;;1.20;1.10;;;26.10;70.50;;;;;;5014584;28;20459;-83
2022/06/27 02:11:56;;;;;;;1.30;1.20;;;26.20;70.70;;;;;;5014758;28;20885;-84
2022/06/27 02:14:25;;;;;;;1.50;1.40;;;26.10;70.50;;;;;;5014616;28;20515;-84
2022/06/27 02:16:52;;;;;;;1.17;1.07;;;26.20;70.60;;;;;;5014690;28;20965;-84
2022/06/27 02:19:20;;;;;;;1.07;0.97;;;26.20;70.70;;;;;;5014561;28;20870;-84
2022/06/27 02:21:48;;;;;;;1.17;1.07;;;26.20;70.70;;;;;;5014707;28;20471;-84
2022/06/27 02:24:16;;;;;;;1.30;1.20;;;26.10;70.60;;;;;;5014390;28;20446;-84
2022/06/27 02:26:44;;;;;;;1.20;1.10;;;26.20;70.70;;;;;;5014193;28;20495;-84
2022/06/27 02:29:11;;;;;;;1.10;1.00;;;26.20;70.70;;;;;;5014550;28;20996;-84
2022/06/27 02:31:47;;;;;;;1.20;1.10;;;26.10;70.60;;;;;;5014346;28;20454;-83
2022/06/27 02:34:14;;;;;;;1.10;1.00;;;26.20;70.70;;;;;;5014306;28;20534;-84
2022/06/27 02:36:42;;;;;;;1.23;1.13;;;26.20;70.70;;;;;;5014242;28;20450;-84
2022/06/27 02:39:11;;;;;;;1.10;1.00;;;26.20;70.70;;;;;;5014275;28;20439;-83
2022/06/27 02:41:40;;;;;;;1.10;1.00;;;26.10;70.60;;;;;;5014254;28;20499;-83
2022/06/27 02:44:09;;;;;;;1.37;1.27;;;26.10;70.60;;;;;;5014030;28;20526;-83
2022/06/27 02:46:37;;;;;;;1.30;1.20;;;26.20;70.70;;;;;;5013967;28;20573;-84
2022/06/27 02:49:07;;;;;;;1.30;1.10;;;26.10;70.70;;;;;;5014048;28;20546;-84
2022/06/27 02:51:41;;;;;;;1.00;0.90;;;26.20;70.80;;;;;;5014003;28;20443;-83
2022/06/27 02:54:10;;;;;;;1.20;1.10;;;26.10;70.70;;;;;;5013976;28;20546;-84
2022/06/27 02:56:44;;;;;;;1.20;1.10;;;26.20;70.80;;;;;;5013851;28;20446;-83
2022/06/27 02:59:17;;;;;;;1.17;1.07;;;26.10;70.60;;;;;;5013490;28;20450;-84
2022/06/27 03:01:46;;;;;;;1.10;1.00;;;26.20;70.70;;;;;;5013971;28;20483;-84
2022/06/27 03:04:15;;;;;;;1.10;1.00;;;26.10;70.70;;;;;;5013735;28;21009;-84
2022/06/27 03:06:43;;;;;;;1.20;1.10;;;26.10;70.60;;;;;;5013463;28;20483;-83
2022/06/27 03:09:10;;;;;;;1.03;0.90;;;26.10;70.60;;;;;;5013760;28;20458;-84
2022/06/27 03:11:37;;;;;;;1.20;1.10;;;26.20;70.80;;;;;;5013538;28;20460;-84
2022/06/27 03:14:04;;;;;;;1.20;1.10;;;26.10;70.60;;;;;;5013498;28;20471;-84
2022/06/27 03:16:31;;;;;;;1.20;1.10;;;26.10;70.60;;;;;;5013715;28;20472;-84
2022/06/27 03:18:57;;;;;;;1.10;1.00;;;26.10;70.70;;;;;;5013506;28;20527;-83
2022/06/27 03:21:26;;;;;;;1.30;1.20;;;26.10;70.60;;;;;;5013519;28;20534;-83
2022/06/27 03:23:53;;;;;;;1.10;1.00;;;26.20;70.70;;;;;;5013554;28;20535;-84
2022/06/27 03:26:20;;;;;;;1.10;1.00;;;26.10;70.60;;;;;;5013357;28;20667;-83
2022/06/27 03:28:47;;;;;;;1.17;1.07;;;26.10;70.60;;;;;;5013561;28;20528;-83
2022/06/27 03:31:16;;;;;;;1.30;1.20;;;26.10;70.60;;;;;;5013567;28;20472;-84
2022/06/27 03:33:43;;;;;;;1.17;1.07;;;26.20;70.70;;;;;;5013204;28;20443;-83
2022/06/27 03:36:11;;;;;;;1.13;1.03;;;26.10;70.60;;;;;;5013598;28;20475;-84
2022/06/27 03:38:40;;;;;;;1.10;1.00;;;26.20;70.70;;;;;;5013403;28;20821;-84
2022/06/27 03:41:07;;;;;;;1.30;1.20;;;26.10;70.60;;;;;;5013245;28;20455;-84
2022/06/27 03:43:34;;;;;;;1.30;1.00;;;26.20;70.70;;;;;;4995925;28;20440;-83
2022/06/27 03:46:01;;;;;;;1.20;1.10;;;26.10;70.70;;;;;;5013105;28;21013;-84
2022/06/27 03:51:12;;;;;;;1.30;1.20;;;26.10;70.60;;;;;;5013378;28;20774;-83
2022/06/27 03:53:40;;;;;;;1.43;1.33;;;26.10;70.70;;;;;;5013296;28;20439;-84
2022/06/27 03:56:07;;;;;;;1.23;1.13;;;26.10;70.70;;;;;;5013363;28;20535;-83
2022/06/27 03:58:34;;;;;;;1.10;1.00;;;26.10;70.70;;;;;;5013318;28;20475;-84
2022/06/27 04:01:03;;;;;;;1.20;1.10;;;26.10;70.70;;;;;;5013153;28;20854;-84
2022/06/27 04:03:30;;;;;;;1.10;1.00;;;26.10;70.70;;;;;;5012988;28;20443;-83
2022/06/27 04:05:57;;;;;;;1.30;1.20;;;26.10;70.70;;;;;;5012969;28;20539;-84
2022/06/27 04:08:24;;;;;;;1.30;1.20;;;26.10;70.70;;;;;;5013036;28;20523;-84
2022/06/27 04:10:52;;;;;;;1.27;1.17;;;26.10;70.70;;;;;;5013683;28;20467;-84
2022/06/27 04:13:19;;;;;;;1.07;0.97;;;26.10;71.60;;;;;;5016966;28;20435;-90
2022/06/27 04:15:46;;;;;;;1.10;1.00;;;26.10;70.70;;;;;;5017067;28;20522;-84
2022/06/27 04:18:13;;;;;;;1.33;1.23;;;26.10;70.70;;;;;;5016801;28;20439;-84
2022/06/27 04:20:42;;;;;;;1.20;1.00;;;26.10;70.70;;;;;;5016737;28;20526;-84
2022/06/27 04:23:09;;;;;;;1.30;1.20;;;26.10;70.70;;;;;;5016732;28;20446;-84
2022/06/27 04:25:35;;;;;;;1.30;1.20;;;26.10;70.70;;;;;;5016817;28;20540;-84
2022/06/27 04:28:04;;;;;;;1.20;1.10;;;26.10;70.70;;;;;;5016328;28;20586;-84
2022/06/27 04:30:32;;;;;;;1.47;1.37;;;26.10;70.70;;;;;;5016564;28;20449;-83
2022/06/27 04:32:59;;;;;;;1.30;1.20;;;26.10;70.70;;;;;;5016428;28;20435;-84
2022/06/27 04:35:26;;;;;;;1.10;1.00;;;26.10;70.70;;;;;;5016467;28;20788;-84
2022/06/27 04:37:53;;;;;;;1.10;1.00;;;26.10;70.60;;;;;;5016454;28;20521;-84
2022/06/27 04:40:20;;;;;;;1.20;1.10;;;26.10;71.50;;;;;;5016427;28;20468;-84
2022/06/27 04:42:49;;;;;;;1.20;1.10;;;26.10;70.70;;;;;;5016295;28;20810;-84
2022/06/27 04:45:18;;;;;;;1.20;1.10;;;26.10;70.70;;;;;;5016178;28;20486;-83
2022/06/27 04:47:47;;;;;;;1.10;1.00;;;26.10;70.70;;;;;;5016176;28;20518;-83
2022/06/27 04:50:15;;;;;;;1.30;1.20;;;26.10;70.70;;;;;;5016343;28;20442;-84
2022/06/27 04:52:42;;;;;;;1.30;1.20;;;26.10;70.60;;;;;;5016240;28;20531;-84
2022/06/27 04:55:12;;;;;;;1.30;1.20;;;26.10;70.70;;;;;;5015938;28;20497;-83
2022/06/27 04:57:43;;;;;;;1.23;1.13;;;26.10;70.70;;;;;;5016197;28;20448;-84
2022/06/27 05:00:12;;;;;;;1.10;0.90;;;26.10;70.70;;;;;;5016064;28;20502;-83
2022/06/27 05:02:40;;;;;;;1.10;1.00;;;26.10;70.70;;;;;;5016098;28;20848;-83
2022/06/27 05:05:08;;;;;;;1.00;0.90;;;26.10;70.70;;;;;;5015860;28;20443;-84
2022/06/27 05:07:36;;;;;;;1.43;1.33;;;26.10;70.70;;;;;;5016050;28;20479;-84
2022/06/27 05:10:02;;;;;;;1.10;1.00;;;26.10;70.70;;;;;;5015795;28;20447;-84
2022/06/27 05:12:29;;;;;;;1.03;0.90;;;26.10;70.80;;;;;;5015682;28;20546;-84
2022/06/27 05:14:56;;;;;;;1.23;1.13;;;26.10;70.70;;;;;;5015703;28;20480;-84
2022/06/27 05:17:24;;;;;;;1.37;1.27;;;26.10;70.70;;;;;;5015767;28;20522;-84
2022/06/27 05:19:52;;;;;;;1.27;1.17;;;26.10;70.80;;;;;;5015757;28;20450;-83
2022/06/27 05:22:20;;;;;;;1.37;1.27;;;26.10;70.80;;;;;;5015430;28;20439;-84
2022/06/27 05:24:48;;;;;;;1.27;1.17;;;26.10;70.80;;;;;;5015213;28;20490;-84
2022/06/27 05:27:16;;;;;;;1.20;1.10;;;26.10;70.80;;;;;;5013487;28;20490;-84
2022/06/27 05:29:43;;;;;;;1.73;1.40;;;26.10;70.90;;;;;;5014664;28;20459;-84
2022/06/27 05:32:10;;;;;;;1.30;1.20;;;26.10;70.80;;;;;;5014903;28;20475;-85
2022/06/27 05:34:37;;;;;;;1.23;1.13;;;26.10;70.80;;;;;;5014614;28;20464;-84
2022/06/27 05:37:06;;;;;;;1.37;1.27;;;26.10;70.80;;;;;;5014858;28;20479;-85
2022/06/27 05:39:34;;;;;;;1.20;1.10;;;26.10;70.80;;;;;;5014757;28;20444;-84
2022/06/27 05:42:01;;;;;;;1.30;1.20;;;26.10;70.80;;;;;;5015278;28;20459;-84
2022/06/27 05:44:28;;;;;;;1.47;1.37;;;26.10;70.80;;;;;;5015302;28;20443;-84
2022/06/27 05:46:56;;;;;;;1.30;1.20;;;26.00;70.80;;;;;;5015048;28;20573;-84
2022/06/27 05:49:24;;;;;;;3.93;1.50;;;26.10;70.80;;;;;;5015091;28;20509;-84
2022/06/27 05:51:52;;;;;;;1.27;1.17;;;26.00;70.80;;;;;;5015176;28;20450;-91
2022/06/27 05:54:21;;;;;;;1.40;1.30;;;26.10;70.90;;;;;;5015198;28;20539;-84
2022/06/27 05:56:49;;;;;;;1.40;1.30;;;26.10;70.90;;;;;;5014883;28;20844;-84
2022/06/27 05:59:16;;;;;;;1.10;1.00;;;26.00;70.80;;;;;;5015317;28;20439;-84
2022/06/27 06:01:45;;;;;;;1.23;1.13;;;26.10;70.90;;;;;;5014994;28;20443;-84
2022/06/27 06:04:13;;;;;;;1.20;1.10;;;26.10;70.90;;;;;;5014936;28;20518;-84
2022/06/27 06:06:41;;;;;;;1.50;1.30;;;26.10;70.90;;;;;;5014730;28;20510;-84
2022/06/27 06:09:08;;;;;;;1.17;1.07;;;26.10;71.00;;;;;;5014767;28;20447;-84
2022/06/27 06:11:36;;;;;;;1.20;1.10;;;26.10;71.90;;;;;;5014900;28;20558;-84
2022/06/27 06:14:04;;;;;;;1.10;1.00;;;26.10;71.00;;;;;;5014677;28;20547;-84
2022/06/27 06:16:32;;;;;;;1.40;1.30;;;26.00;70.90;;;;;;5014498;28;20444;-84
2022/06/27 06:18:59;;;;;;;1.30;1.17;;;26.10;71.00;;;;;;5014761;28;20439;-84
2022/06/27 06:21:27;;;;;;;1.20;1.10;;;26.10;71.00;;;;;;5014502;28;20439;-84
2022/06/27 06:23:54;;;;;;;1.30;1.20;;;26.10;71.00;;;;;;5014361;28;20447;-84
2022/06/27 06:26:21;;;;;;;1.30;1.20;;;26.00;70.90;;;;;;5014069;28;20439;-84
2022/06/27 06:28:50;;;;;;;1.50;1.40;;;26.10;71.10;;;;;;5014415;28;20566;-84
2022/06/27 06:31:21;;;;;;;1.50;1.40;;;26.10;71.10;;;;;;5014434;28;20545;-85
2022/06/27 06:33:50;;;;;;;1.47;1.37;;;26.00;71.00;;;;;;5013876;28;20954;-84
2022/06/27 06:36:17;;;;;;;1.10;1.00;;;26.10;71.10;;;;;;5014233;28;20567;-84
2022/06/27 06:38:44;;;;;;;1.30;1.20;;;26.10;71.10;;;;;;5014381;28;20487;-84
2022/06/27 06:41:11;;;;;;;1.20;1.10;;;26.00;71.00;;;;;;5014190;28;20455;-84
2022/06/27 06:43:38;;;;;;;1.37;1.27;;;26.10;71.10;;;;;;5014265;28;20530;-84
2022/06/27 06:46:06;;;;;;;1.50;1.40;;;26.10;71.10;;;;;;5015752;28;20474;-84
2022/06/27 06:48:35;;;;;;;1.47;1.37;;;26.10;71.20;;;;;;5016273;28;20488;-84
2022/06/27 06:51:02;;;;;;;1.40;1.30;;;26.00;71.10;;;;;;5016538;28;20533;-84
2022/06/27 06:53:28;;;;;;;1.20;1.10;;;26.10;71.20;;;;;;5015125;28;20534;-90
2022/06/27 06:55:57;;;;;;;1.63;1.53;;;26.10;72.20;;;;;;5014225;28;20523;-85
2022/06/27 06:58:25;;;;;;;1.20;1.10;;;26.00;71.10;;;;;;5014228;28;20451;-84
2022/06/27 07:00:52;;;;;;;1.17;1.07;;;26.00;71.10;;;;;;5013996;28;20444;-84
2022/06/27 07:03:21;;;;;;;1.30;1.20;;;26.10;71.20;;;;;;5013898;28;20795;-84
2022/06/27 07:05:48;;;;;;;1.43;1.33;;;26.10;71.30;;;;;;5013802;28;20435;-84
2022/06/27 07:08:15;;;;;;;1.20;1.10;;;26.10;71.30;;;;;;5013616;28;20617;-84
2022/06/27 07:10:42;;;;;;;1.30;1.10;;;26.10;71.30;;;;;;5013859;28;20550;-91
2022/06/27 07:13:10;;;;;;;1.40;1.30;;;26.00;71.20;;;;;;5013543;28;20843;-84
2022/06/27 07:15:38;;;;;;;1.30;1.20;;;26.10;71.30;;;;;;5013810;28;20787;-85
2022/06/27 07:18:05;;;;;;;1.40;1.30;;;26.10;71.30;;;;;;5013579;28;20447;-84
2022/06/27 07:20:34;;;;;;;1.40;1.30;;;26.10;71.30;;;;;;5013543;28;20830;-84
2022/06/27 07:23:02;;;;;;;1.40;1.30;;;26.10;71.30;;;;;;5013485;28;20831;-84
2022/06/27 07:25:29;;;;;;;1.40;1.30;;;26.00;71.20;;;;;;5013742;28;21007;-84
2022/06/27 07:27:59;;;;;;;1.40;1.30;;;26.10;71.30;;;;;;5013375;28;20495;-84
2022/06/27 07:30:26;;;;;;;1.20;1.10;;;26.10;71.30;;;;;;5013486;28;20446;-85
2022/06/27 07:32:53;;;;;;;1.40;1.30;;;26.10;71.20;;;;;;5013559;28;20451;-84
2022/06/27 07:35:19;;;;;;;1.47;1.37;;;26.10;71.30;;;;;;5013357;28;20522;-85
2022/06/27 07:37:49;;;;;;;1.60;1.50;;;26.10;71.20;;;;;;5013302;28;20440;-84
2022/06/27 07:40:17;;;;;;;1.37;1.27;;;26.10;71.30;;;;;;5013378;28;20435;-85
2022/06/27 07:42:44;;;;;;;1.20;1.10;;;26.10;71.30;;;;;;5013586;28;20446;-84
2022/06/27 07:45:13;;;;;;;1.40;1.30;;;26.10;71.30;;;;;;5013324;28;20966;-84
2022/06/27 07:47:40;;;;;;;1.20;1.10;;;26.10;71.20;;;;;;5016933;28;20848;-84
2022/06/27 07:50:08;;;;;;;1.37;1.27;;;26.00;71.10;;;;;;5017574;28;20471;-85
2022/06/27 07:55:18;;;;;;;1.63;1.50;;;26.00;71.20;;;;;;5016432;28;20521;-85
2022/06/27 07:57:46;;;;;;;1.13;1.03;;;26.00;71.20;;;;;;5017417;28;20486;-84
2022/06/27 08:00:14;;;;;;;1.20;1.10;;;26.10;71.30;;;;;;5017233;28;20440;-91
2022/06/27 08:02:41;;;;;;;1.53;1.43;;;26.00;71.10;;;;;;5017284;28;20462;-85
2022/06/27 08:05:09;;;;;;;1.60;1.50;;;26.00;71.10;;;;;;5017119;28;20439;-84
2022/06/27 08:07:36;;;;;;;1.40;1.30;;;26.00;71.10;;;;;;5017014;28;21024;-84
2022/06/27 08:10:03;;;;;;;1.50;1.40;;;26.00;71.10;;;;;;5017223;28;20794;-84
2022/06/27 08:12:33;;;;;;;1.47;1.37;;;26.00;71.10;;;;;;5016974;28;20486;-84
2022/06/27 08:15:00;;;;;;;1.30;1.20;;;26.10;71.20;;;;;;5017023;28;20790;-84
2022/06/27 08:17:27;;;;;;;1.40;1.30;;;26.00;71.10;;;;;;5016760;28;20474;-84
2022/06/27 08:19:54;;;;;;;1.53;1.43;;;26.00;71.10;;;;;;5016803;28;20444;-84
2022/06/27 08:22:24;;;;;;;1.60;1.50;;;26.00;71.10;;;;;;5016787;28;20439;-84
2022/06/27 08:24:51;;;;;;;1.80;1.70;;;26.00;71.10;;;;;;5016848;28;20447;-84
2022/06/27 08:27:18;;;;;;;1.23;1.13;;;26.00;71.20;;;;;;5016638;28;20562;-84
2022/06/27 08:29:46;;;;;;;1.33;1.23;;;26.00;71.20;;;;;;5016593;28;20529;-84
2022/06/27 08:32:13;;;;;;;1.57;1.47;;;26.00;72.00;;;;;;5016492;28;20872;-84
2022/06/27 08:34:40;;;;;;;1.50;1.40;;;26.00;71.20;;;;;;5016301;28;20443;-84
2022/06/27 08:37:08;;;;;;;1.20;1.10;;;26.00;71.20;;;;;;5016560;28;20439;-84
2022/06/27 08:39:35;;;;;;;1.50;1.40;;;26.00;71.20;;;;;;5016753;28;20518;-84
2022/06/27 08:42:03;;;;;;;1.50;1.40;;;26.00;71.30;;;;;;5016242;28;20455;-84
2022/06/27 08:44:32;;;;;;;1.30;1.20;;;26.00;71.30;;;;;;5016336;28;20436;-84
2022/06/27 08:47:03;;;;;;;2.10;1.90;;;26.00;71.20;;;;;;5016285;28;20543;-83
2022/06/27 08:49:30;;;;;;;1.40;1.30;;;26.00;71.30;;;;;;5016290;28;20891;-87
2022/06/27 08:51:58;;;;;;;1.73;1.63;;;26.00;71.30;;;;;;5016172;28;20469;-89
2022/06/27 08:54:28;;;;;;;1.43;1.33;;;26.00;72.10;;;;;;5016256;28;20471;-83
2022/06/27 08:56:55;;;;;;;1.30;1.20;;;26.00;71.30;;;;;;5015536;28;20534;-84
2022/06/27 08:59:22;;;;;;;1.83;1.73;;;26.00;71.30;;;;;;5016210;28;20443;-84
2022/06/27 09:01:49;;;;;;;1.70;1.60;;;26.00;71.20;;;;;;5016179;28;20844;-84
2022/06/27 09:04:17;;;;;;;1.63;1.53;;;26.00;71.30;;;;;;5015929;28;20431;-84
2022/06/27 09:06:56;;;;;;;2.37;2.17;;;26.00;71.30;;;;;;5015893;28;20840;-83
2022/06/27 09:09:24;;;;;;;2.07;1.97;;;26.00;71.30;;;;;;5015916;28;20517;-83
2022/06/27 09:11:53;;;;;;;1.93;1.83;;;26.00;71.30;;;;;;5016086;28;20503;-83
2022/06/27 09:14:35;;;;;;;1.80;1.70;;;26.00;71.40;;;;;;5015985;28;20971;-83
2022/06/27 09:17:04;;;;;;;1.77;1.67;;;26.00;71.30;;;;;;5015923;28;20443;-83
2022/06/27 09:19:53;;;;;;;2.00;1.90;;;26.00;71.40;;;;;;5015710;28;20919;-82
2022/06/27 09:22:23;;;;;;;1.70;1.60;;;26.00;71.30;;;;;;5015946;28;20432;-83
2022/06/27 09:25:01;;;;;;;1.80;1.70;;;26.00;71.40;;;;;;5015856;28;20497;-83
2022/06/27 09:27:43;;;;;;;1.90;1.63;;;26.00;71.40;;;;;;5016348;28;20562;-84
2022/06/27 09:30:26;;;;;;;1.50;1.40;;;26.00;71.40;;;;;;5018175;28;20869;-88
2022/06/27 09:32:56;;;;;;;1.60;1.50;;;26.00;71.40;;;;;;5017654;28;20815;-83
2022/06/27 09:35:27;;;;;;;1.90;1.80;;;26.00;71.40;;;;;;5015487;28;20448;-84
2022/06/27 09:37:55;;;;;;;1.80;1.70;;;26.00;71.40;;;;;;5015576;28;20443;-83
2022/06/27 09:40:24;;;;;;;1.90;1.80;;;26.00;71.40;;;;;;5015346;28;20546;-83
2022/06/27 09:42:53;;;;;;;1.63;1.53;;;26.00;71.40;;;;;;5015354;28;20518;-83
2022/06/27 09:45:23;;;;;;;1.80;1.70;;;26.00;71.30;;;;;;5015412;28;20522;-83
2022/06/27 09:47:53;;;;;;;1.80;1.70;;;26.00;71.40;;;;;;5015067;28;20476;-84
2022/06/27 09:50:21;;;;;;;1.60;1.50;;;26.00;71.40;;;;;;5015303;28;20440;-83
2022/06/27 09:52:51;;;;;;;1.70;1.60;;;26.00;71.40;;;;;;5015260;28;20493;-83
2022/06/27 09:55:23;;;;;;;1.80;1.70;;;26.00;71.30;;;;;;5014918;28;20506;-83
2022/06/27 09:57:50;;;;;;;2.07;1.97;;;26.00;72.20;;;;;;5015280;28;20448;-84
2022/06/27 10:00:19;;;;;;;1.97;1.87;;;26.00;71.40;;;;;;5014911;28;20435;-83
2022/06/27 10:02:47;;;;;;;1.73;1.63;;;26.00;71.30;;;;;;5014909;28;20440;-83
2022/06/27 10:05:16;;;;;;;3.33;1.50;;;26.00;71.30;;;;;;5014933;28;20452;-84
2022/06/27 10:07:44;;;;;;;1.80;1.70;;;26.00;71.40;;;;;;5014729;28;20452;-84
2022/06/27 10:10:12;;;;;;;1.50;1.40;;;26.00;71.30;;;;;;5014034;28;20530;-84
2022/06/27 10:12:39;;;;;;;2.00;1.90;;;26.00;71.40;;;;;;5014671;28;20471;-83
2022/06/27 10:15:28;;;;;;;2.13;1.93;;;26.00;71.40;;;;;;5014678;28;20467;-84
2022/06/27 10:17:58;;;;;;;1.80;1.70;;;26.00;71.30;;;;;;5014770;28;20436;-83
2022/06/27 10:20:37;;;;;;;1.70;1.60;;;26.00;72.20;;;;;;5014686;28;20967;-84
2022/06/27 10:26:28;;;;;;;1.90;1.80;;;26.00;71.30;;;;;;5014115;28;20428;-84
2022/06/27 10:29:33;;;;;;;1.80;1.70;;;26.00;71.40;;;;;;5014307;28;20523;-83
2022/06/27 10:32:00;;;;;;;2.03;1.93;;;26.00;71.20;;;;;;5014655;28;20451;-83
2022/06/27 10:35:00;;;;;;;1.73;1.63;;;26.00;71.40;;;;;;5014199;28;20440;-84
2022/06/27 10:37:37;;;;;;;1.63;1.53;;;26.00;71.30;;;;;;5004329;28;20542;-84
2022/06/27 10:40:55;;;;;;;2.23;2.03;;;26.00;71.30;;;;;;5013980;28;20501;-83
2022/06/27 10:43:41;;;;;;;1.60;1.50;;;26.00;71.20;;;;;;5014216;28;20531;-83
2022/06/27 10:46:39;;;;;;;2.17;2.07;;;26.00;71.20;;;;;;5014197;28;20486;-83
2022/06/27 10:49:19;;;;;;;1.80;1.70;;;26.00;71.30;;;;;;5014140;28;20567;-84
2022/06/27 10:51:46;;;;;;;1.90;1.80;;;26.00;71.30;;;;;;5014264;28;20450;-84
2022/06/27 10:54:13;;;;;;;1.87;1.77;;;26.00;71.30;;;;;;5014061;28;20538;-83
2022/06/27 10:56:43;;;;;;;1.97;1.77;;;26.00;71.30;;;;;;5014059;28;20436;-83
2022/06/27 11:00:01;;;;;;;1.73;1.63;;;26.00;71.20;;;;;;5014105;28;20502;-83
2022/06/27 11:02:31;;;;;;;1.80;1.70;;;26.10;71.30;;;;;;5014122;28;20451;-83
2022/06/27 11:04:58;;;;;;;1.90;1.80;;;26.00;71.30;;;;;;5013815;28;20444;-83
2022/06/27 11:07:26;;;;;;;1.80;1.70;;;26.00;71.30;;;;;;5013729;28;20519;-84
2022/06/27 11:09:53;;;;;;;1.93;1.73;;;26.00;71.20;;;;;;5013805;28;20963;-83
2022/06/27 11:12:23;;;;;;;1.70;1.60;;;26.00;71.20;;;;;;5013521;28;20468;-84
2022/06/27 11:14:51;;;;;;;2.23;2.13;;;26.00;71.20;;;;;;5013781;28;20957;-83
2022/06/27 11:17:34;;;;;;;2.23;2.13;;;26.00;71.20;;;;;;5013642;28;20474;-86
2022/06/27 11:20:13;;;;;;;2.17;2.07;;;26.10;71.20;;;;;;5013448;28;20475;-83
2022/06/27 11:22:40;;;;;;;2.10;2.00;;;26.00;71.10;;;;;;5013691;28;20471;-83
2022/06/27 11:25:07;;;;;;;2.60;2.40;;;26.00;71.20;;;;;;5013535;28;20938;-83
2022/06/27 11:27:49;;;;;;;1.80;1.70;;;26.00;71.30;;;;;;5013282;28;20566;-83
2022/06/27 11:33:24;;;;;;;2.03;1.93;;;26.10;71.20;;;;;;5013714;28;20504;-84
2022/06/27 11:35:51;;;;;;;2.10;2.00;;;26.00;71.30;;;;;;5013813;28;20439;-83
2022/06/27 11:38:24;;;;;;;1.83;1.73;;;26.00;71.20;;;;;;5013454;28;21093;-84
2022/06/27 11:41:06;;;;;;;1.97;1.87;;;26.00;71.20;;;;;;5013241;28;20554;-83
2022/06/27 11:43:56;;;;;;;1.60;1.50;;;26.00;71.20;;;;;;5013344;28;20501;-83
2022/06/27 11:46:34;;;;;;;2.07;1.97;;;26.00;71.10;;;;;;5013271;28;20471;-83
2022/06/27 11:49:08;;;;;;;1.93;1.83;;;26.00;71.20;;;;;;5013225;28;20530;-83
2022/06/27 11:51:37;;;;;;;1.77;1.67;;;26.00;71.30;;;;;;5013274;28;20860;-83
2022/06/27 11:54:09;;;;;;;1.73;1.63;;;26.00;71.40;;;;;;5013209;28;20885;-88
2022/06/27 11:56:39;;;;;;;2.37;2.07;;;26.00;71.30;;;;;;5013234;28;20436;-83
2022/06/27 11:59:08;;;;;;;1.60;1.50;;;26.00;71.30;;;;;;5013478;28;20837;-83
2022/06/27 12:01:49;;;;;;;1.83;1.73;;;26.00;72.10;;;;;;5013318;28;20519;-83
2022/06/27 12:04:19;;;;;;;1.97;1.87;;;26.00;71.20;;;;;;5013325;28;20543;-84
2022/06/27 12:06:48;;;;;;;2.30;2.20;;;26.00;71.30;;;;;;5013006;28;20531;-84
2022/06/27 12:09:17;;;;;;;2.20;2.10;;;26.00;71.30;;;;;;5013113;28;20825;-84
2022/06/27 12:11:51;;;;;;;2.00;1.90;;;26.10;71.40;;;;;;5013120;28;21040;-84
2022/06/27 12:14:19;;;;;;;2.50;2.30;;;26.00;71.30;;;;;;5012893;28;20868;-84
2022/06/27 12:16:47;;;;;;;1.80;1.70;;;26.00;71.30;;;;;;5013228;28;20827;-84
2022/06/27 12:19:15;;;;;;;2.50;2.40;;;26.00;71.30;;;;;;5013062;28;20578;-84
2022/06/27 12:21:44;;;;;;;2.23;2.13;;;26.00;71.30;;;;;;5013173;28;20450;-84
2022/06/27 12:24:11;;;;;;;2.13;2.03;;;26.00;71.30;;;;;;5012994;28;20446;-84
2022/06/27 12:26:38;;;;;;;2.40;2.30;;;26.00;71.30;;;;;;5012757;28;20982;-84
2022/06/27 12:29:06;;;;;;;2.40;2.30;;;26.10;71.40;;;;;;5012898;28;20585;-84
2022/06/27 12:31:33;;;;;;;2.03;1.93;;;26.00;71.40;;;;;;5013279;28;20475;-84
2022/06/27 12:34:00;;;;;;;2.00;1.90;;;26.00;71.40;;;;;;5016753;28;20446;-84
2022/06/27 12:36:28;;;;;;;2.50;2.40;;;26.00;71.40;;;;;;5016725;28;20525;-90
2022/06/27 12:38:57;;;;;;;2.80;2.63;;;26.10;71.50;;;;;;5016733;28;20439;-84
2022/06/27 12:41:23;;;;;;;2.60;2.50;;;26.00;71.50;;;;;;5016696;28;20503;-84
2022/06/27 12:43:50;;;;;;;3.10;2.90;;;26.00;71.60;;;;;;5016390;28;20795;-84
2022/06/27 12:46:19;;;;;;;2.73;2.57;;;26.10;72.60;;;;;;5016393;28;20482;-84
2022/06/27 12:48:46;;;;;;;2.90;2.80;;;26.10;71.80;;;;;;5016342;28;20502;-90
2022/06/27 12:51:13;;;;;;;2.70;2.60;;;26.00;71.70;;;;;;5016417;28;20535;-84
2022/06/27 12:53:40;;;;;;;2.60;2.50;;;26.00;71.70;;;;;;5016155;28;20448;-84
2022/06/27 12:56:09;;;;;;;2.50;2.40;;;26.10;71.70;;;;;;5016157;28;20544;-84
2022/06/27 12:58:37;;;;;;;2.10;2.00;;;26.10;71.70;;;;;;5016226;28;21074;-84
2022/06/27 13:01:04;;;;;;;2.40;2.30;;;26.00;72.40;;;;;;5016371;28;20539;-84
2022/06/27 13:03:31;;;;;;;2.40;2.30;;;26.10;71.80;;;;;;5016101;28;20443;-84
2022/06/27 13:05:58;;;;;;;2.30;2.20;;;26.10;71.80;;;;;;5016134;28;20479;-87
2022/06/27 13:08:26;;;;;;;2.13;2.03;;;26.00;71.70;;;;;;5015979;28;20523;-84
2022/06/27 13:10:53;;;;;;;2.37;2.27;;;26.00;71.60;;;;;;5016047;28;20870;-84